createdAt,value
2018-03-26T00:00:01.856Z,0
2018-03-26T00:01:02.422Z,0
2018-03-26T00:02:02.988Z,0
2018-03-26T00:03:03.555Z,0
2018-03-26T00:04:04.121Z,0
2018-03-26T00:05:04.688Z,0
2018-03-26T00:06:05.254Z,0
2018-03-26T00:07:05.821Z,0
2018-03-26T00:08:06.386Z,0
2018-03-26T00:09:06.953Z,0
2018-03-26T00:10:07.521Z,0
2018-03-26T00:11:08.089Z,0
2018-03-26T00:12:08.668Z,0
2018-03-26T00:13:09.237Z,0
2018-03-26T00:14:09.819Z,0
2018-03-26T00:15:10.384Z,0
2018-03-26T00:16:10.952Z,0
2018-03-26T00:17:11.522Z,0
2018-03-26T00:18:12.091Z,0
2018-03-26T00:19:12.659Z,0
2018-03-26T00:20:13.237Z,0
2018-03-26T00:21:13.808Z,0
2018-03-26T00:22:14.375Z,0
2018-03-26T00:23:14.944Z,0
2018-03-26T00:24:15.511Z,0
2018-03-26T00:25:16.082Z,0
2018-03-26T00:26:16.645Z,0
2018-03-26T00:27:17.215Z,0
2018-03-26T00:28:17.782Z,0
2018-03-26T00:29:18.348Z,0
2018-03-26T00:30:18.913Z,0
2018-03-26T00:31:19.509Z,0
2018-03-26T00:32:20.048Z,0
2018-03-26T00:33:20.616Z,0
2018-03-26T00:34:21.181Z,0
2018-03-26T00:35:21.748Z,0
2018-03-26T00:36:22.314Z,0
2018-03-26T00:37:22.926Z,0
2018-03-26T00:38:23.466Z,0
2018-03-26T00:39:24.027Z,0
2018-03-26T00:40:24.595Z,0
2018-03-26T00:41:25.165Z,0
2018-03-26T00:42:25.730Z,0
2018-03-26T00:43:26.298Z,0
2018-03-26T00:44:26.864Z,0
2018-03-26T00:45:27.431Z,0
2018-03-26T00:46:27.997Z,0
2018-03-26T00:47:28.564Z,0
2018-03-26T00:48:29.130Z,0
2018-03-26T00:49:29.697Z,0
2018-03-26T00:50:30.263Z,0
2018-03-26T00:51:30.840Z,0
2018-03-26T00:52:31.408Z,0
2018-03-26T00:53:31.976Z,0
2018-03-26T00:54:32.543Z,0
2018-03-26T00:55:33.111Z,0
2018-03-26T00:56:33.678Z,0
2018-03-26T00:57:34.246Z,0
2018-03-26T00:58:34.812Z,0
2018-03-26T00:59:35.391Z,0
2018-03-26T01:00:35.959Z,0
2018-03-26T01:01:36.526Z,0
2018-03-26T01:02:37.095Z,0
2018-03-26T01:03:37.662Z,0
2018-03-26T01:04:38.230Z,0
2018-03-26T01:05:38.798Z,0
2018-03-26T01:06:39.365Z,0
2018-03-26T01:07:39.932Z,0
2018-03-26T01:08:40.497Z,0
2018-03-26T01:09:41.068Z,0
2018-03-26T01:10:41.637Z,0
2018-03-26T01:11:42.198Z,0
2018-03-26T01:12:42.764Z,0
2018-03-26T01:13:43.334Z,0
2018-03-26T01:14:43.896Z,0
2018-03-26T01:15:44.462Z,0
2018-03-26T01:16:45.029Z,0
2018-03-26T01:17:45.597Z,0
2018-03-26T01:18:46.163Z,0
2018-03-26T01:19:46.728Z,0
2018-03-26T01:20:47.306Z,0
2018-03-26T01:21:47.874Z,0
2018-03-26T01:22:48.452Z,0
2018-03-26T01:23:49.018Z,0
2018-03-26T01:24:49.596Z,0
2018-03-26T01:25:50.161Z,0
2018-03-26T01:26:50.732Z,0
2018-03-26T01:27:51.296Z,0
2018-03-26T01:28:51.863Z,0
2018-03-26T01:29:52.430Z,0
2018-03-26T01:30:52.996Z,0
2018-03-26T01:31:53.562Z,0
2018-03-26T01:32:54.128Z,0
2018-03-26T01:33:54.694Z,0
2018-03-26T01:34:55.261Z,0
2018-03-26T01:35:55.827Z,0
2018-03-26T01:36:56.394Z,0
2018-03-26T01:37:56.960Z,0
2018-03-26T01:38:57.526Z,0
2018-03-26T01:39:58.093Z,0
2018-03-26T01:40:58.661Z,0
2018-03-26T01:41:59.227Z,0
2018-03-26T01:42:59.805Z,0
2018-03-26T01:44:00.373Z,0
2018-03-26T01:45:00.938Z,0
2018-03-26T01:46:01.510Z,0
2018-03-26T01:47:02.070Z,0
2018-03-26T01:48:02.637Z,0
2018-03-26T01:49:03.203Z,0
2018-03-26T01:50:03.771Z,0
2018-03-26T01:51:04.338Z,0
2018-03-26T01:52:04.925Z,0
2018-03-26T01:53:05.471Z,0
2018-03-26T01:54:06.037Z,0
2018-03-26T01:55:06.603Z,0
2018-03-26T01:56:07.170Z,0
2018-03-26T01:57:07.736Z,0
2018-03-26T01:58:08.302Z,0
2018-03-26T01:59:08.869Z,0
2018-03-26T02:00:09.436Z,0
2018-03-26T02:01:10.003Z,0
2018-03-26T02:02:10.567Z,0
2018-03-26T02:03:11.134Z,0
2018-03-26T02:04:11.710Z,0
2018-03-26T02:05:12.266Z,0
2018-03-26T02:06:12.838Z,0
2018-03-26T02:07:13.397Z,0
2018-03-26T02:08:13.964Z,0
2018-03-26T02:09:14.531Z,0
2018-03-26T02:10:15.097Z,0
2018-03-26T02:11:15.675Z,0
2018-03-26T02:12:16.244Z,0
2018-03-26T02:13:16.821Z,0
2018-03-26T02:14:17.390Z,0
2018-03-26T02:15:17.957Z,0
2018-03-26T02:16:18.525Z,0
2018-03-26T02:17:19.101Z,0
2018-03-26T02:18:19.658Z,0
2018-03-26T02:19:20.227Z,0
2018-03-26T02:20:20.792Z,0
2018-03-26T02:21:21.360Z,0
2018-03-26T02:22:21.924Z,0
2018-03-26T02:23:22.489Z,0
2018-03-26T02:24:23.056Z,0
2018-03-26T02:25:23.622Z,0
2018-03-26T02:26:24.189Z,0
2018-03-26T02:27:24.756Z,0
2018-03-26T02:28:25.325Z,0
2018-03-26T02:29:25.898Z,0
2018-03-26T02:30:26.466Z,0
2018-03-26T02:31:27.033Z,0
2018-03-26T02:32:27.598Z,0
2018-03-26T02:33:28.167Z,0
2018-03-26T02:34:28.733Z,0
2018-03-26T02:35:29.300Z,0
2018-03-26T02:36:29.865Z,0
2018-03-26T02:37:30.433Z,0
2018-03-26T02:38:30.997Z,0
2018-03-26T02:39:31.566Z,0
2018-03-26T02:40:32.130Z,0
2018-03-26T02:41:32.696Z,0
2018-03-26T02:42:33.274Z,0
2018-03-26T02:43:33.842Z,0
2018-03-26T02:44:34.410Z,0
2018-03-26T02:45:34.976Z,0
2018-03-26T02:46:35.544Z,0
2018-03-26T02:47:36.109Z,0
2018-03-26T02:48:36.676Z,0
2018-03-26T02:49:37.247Z,0
2018-03-26T02:50:37.810Z,0
2018-03-26T02:51:38.376Z,0
2018-03-26T02:52:38.941Z,0
2018-03-26T02:53:39.507Z,0
2018-03-26T02:54:40.073Z,0
2018-03-26T02:55:40.638Z,0
2018-03-26T02:56:41.204Z,0
2018-03-26T02:57:41.771Z,0
2018-03-26T02:58:42.337Z,0
2018-03-26T02:59:42.902Z,0
2018-03-26T03:00:43.468Z,0
2018-03-26T03:01:44.033Z,0
2018-03-26T03:02:44.601Z,0
2018-03-26T03:03:45.178Z,0
2018-03-26T03:04:45.756Z,0
2018-03-26T03:05:46.324Z,0
2018-03-26T03:06:46.898Z,0
2018-03-26T03:07:47.475Z,0
2018-03-26T03:08:48.044Z,0
2018-03-26T03:09:48.608Z,0
2018-03-26T03:10:49.175Z,0
2018-03-26T03:11:49.752Z,0
2018-03-26T03:12:50.332Z,0
2018-03-26T03:13:50.908Z,0
2018-03-26T03:14:51.486Z,0
2018-03-26T03:15:52.054Z,0
2018-03-26T03:16:52.619Z,0
2018-03-26T03:17:53.187Z,0
2018-03-26T03:18:53.754Z,0
2018-03-26T03:19:54.326Z,0
2018-03-26T03:20:54.885Z,0
2018-03-26T03:21:55.452Z,0
2018-03-26T03:22:56.019Z,0
2018-03-26T03:23:56.586Z,0
2018-03-26T03:24:57.163Z,0
2018-03-26T03:25:57.732Z,0
2018-03-26T03:26:58.302Z,0
2018-03-26T03:27:58.865Z,0
2018-03-26T03:28:59.432Z,0
2018-03-26T03:29:59.999Z,0
2018-03-26T03:31:00.566Z,0
2018-03-26T03:32:01.143Z,0
2018-03-26T03:33:01.709Z,0
2018-03-26T03:34:02.276Z,0
2018-03-26T03:35:02.844Z,0
2018-03-26T03:36:03.413Z,0
2018-03-26T03:37:03.980Z,0
2018-03-26T03:38:04.545Z,0
2018-03-26T03:39:05.112Z,0
2018-03-26T03:40:05.679Z,0
2018-03-26T03:41:06.244Z,0
2018-03-26T03:42:06.811Z,0
2018-03-26T03:43:07.389Z,0
2018-03-26T03:44:07.960Z,0
2018-03-26T03:45:08.523Z,0
2018-03-26T03:46:09.088Z,0
2018-03-26T03:47:09.656Z,0
2018-03-26T03:48:10.221Z,0
2018-03-26T03:49:10.789Z,0
2018-03-26T03:50:11.355Z,0
2018-03-26T03:51:11.923Z,0
2018-03-26T03:52:12.499Z,0
2018-03-26T03:53:13.066Z,0
2018-03-26T03:54:13.642Z,0
2018-03-26T03:55:14.208Z,0
2018-03-26T03:56:14.786Z,0
2018-03-26T03:57:15.355Z,0
2018-03-26T03:58:15.920Z,0
2018-03-26T03:59:16.488Z,0
2018-03-26T04:00:17.054Z,0
2018-03-26T04:01:17.621Z,0
2018-03-26T04:02:18.187Z,0
2018-03-26T04:03:18.753Z,0
2018-03-26T04:04:19.320Z,0
2018-03-26T04:05:19.887Z,0
2018-03-26T04:06:20.452Z,0
2018-03-26T04:07:21.019Z,0
2018-03-26T04:08:21.595Z,0
2018-03-26T04:09:22.162Z,0
2018-03-26T04:10:22.731Z,0
2018-03-26T04:11:23.297Z,0
2018-03-26T04:12:23.865Z,0
2018-03-26T04:13:24.430Z,0
2018-03-26T04:14:25.000Z,0
2018-03-26T04:15:25.577Z,0
2018-03-26T04:16:26.140Z,0
2018-03-26T04:17:26.708Z,0
2018-03-26T04:18:27.275Z,0
2018-03-26T04:19:27.845Z,0
2018-03-26T04:20:28.421Z,0
2018-03-26T04:21:28.988Z,0
2018-03-26T04:22:29.556Z,0
2018-03-26T04:23:30.125Z,0
2018-03-26T04:24:30.692Z,0
2018-03-26T04:25:31.258Z,0
2018-03-26T04:26:31.824Z,0
2018-03-26T04:27:32.391Z,0
2018-03-26T04:28:32.969Z,0
2018-03-26T04:29:33.538Z,0
2018-03-26T04:30:34.103Z,0
2018-03-26T04:31:34.671Z,0
2018-03-26T04:32:35.238Z,0
2018-03-26T04:33:35.804Z,0
2018-03-26T04:34:36.370Z,0
2018-03-26T04:35:36.935Z,0
2018-03-26T04:36:37.502Z,0
2018-03-26T04:37:38.068Z,0
2018-03-26T04:38:38.635Z,0
2018-03-26T04:39:39.200Z,0
2018-03-26T04:40:39.766Z,0
2018-03-26T04:41:40.354Z,0
2018-03-26T04:42:40.894Z,0
2018-03-26T04:43:41.461Z,0
2018-03-26T04:44:42.029Z,0
2018-03-26T04:45:42.593Z,0
2018-03-26T04:46:43.158Z,0
2018-03-26T04:47:43.724Z,0
2018-03-26T04:48:44.288Z,0
2018-03-26T04:49:44.854Z,0
2018-03-26T04:50:45.420Z,0
2018-03-26T04:51:45.984Z,0
2018-03-26T04:52:46.551Z,0
2018-03-26T04:53:47.117Z,0
2018-03-26T04:54:47.682Z,0
2018-03-26T04:55:48.252Z,0
2018-03-26T04:56:48.818Z,0
2018-03-26T04:57:49.384Z,0
2018-03-26T04:58:49.952Z,0
2018-03-26T04:59:50.517Z,0
2018-03-26T05:00:51.084Z,0
2018-03-26T05:01:51.650Z,0
2018-03-26T05:02:52.223Z,0
2018-03-26T05:03:52.780Z,0
2018-03-26T05:04:53.347Z,0
2018-03-26T05:05:53.916Z,0
2018-03-26T05:06:54.478Z,0
2018-03-26T05:07:55.044Z,0
2018-03-26T05:08:55.610Z,0
2018-03-26T05:09:56.176Z,0
2018-03-26T05:10:56.752Z,0
2018-03-26T05:11:57.305Z,0
2018-03-26T05:12:57.872Z,0
2018-03-26T05:13:58.440Z,0
2018-03-26T05:14:59.002Z,0
2018-03-26T05:15:59.567Z,0
2018-03-26T05:17:00.133Z,0
2018-03-26T05:18:00.698Z,0
2018-03-26T05:19:01.265Z,0
2018-03-26T05:20:01.836Z,0
2018-03-26T05:21:02.399Z,0
2018-03-26T05:22:02.963Z,0
2018-03-26T05:23:03.529Z,0
2018-03-26T05:24:04.099Z,0
2018-03-26T05:25:04.665Z,0
2018-03-26T05:26:05.234Z,0
2018-03-26T05:27:05.800Z,0
2018-03-26T05:28:06.368Z,0
2018-03-26T05:29:06.945Z,0
2018-03-26T05:30:07.513Z,0
2018-03-26T05:31:08.110Z,0
2018-03-26T05:32:08.646Z,0
2018-03-26T05:33:09.215Z,0
2018-03-26T05:34:09.784Z,0
2018-03-26T05:35:10.347Z,0
2018-03-26T05:36:10.913Z,0
2018-03-26T05:37:11.482Z,0
2018-03-26T05:38:12.044Z,0
2018-03-26T05:39:12.610Z,0
2018-03-26T05:40:13.188Z,0
2018-03-26T05:41:13.764Z,0
2018-03-26T05:42:14.331Z,0
2018-03-26T05:43:14.898Z,0
2018-03-26T05:44:15.468Z,0
2018-03-26T05:45:16.035Z,0
2018-03-26T05:46:16.601Z,0
2018-03-26T05:47:17.168Z,0
2018-03-26T05:48:17.736Z,0
2018-03-26T05:49:18.302Z,0
2018-03-26T05:50:18.868Z,0
2018-03-26T05:51:19.434Z,0
2018-03-26T05:52:20.003Z,0
2018-03-26T05:53:20.568Z,0
2018-03-26T05:54:21.138Z,0
2018-03-26T05:55:21.706Z,0
2018-03-26T05:56:22.275Z,0
2018-03-26T05:57:22.855Z,0
2018-03-26T05:58:23.424Z,0
2018-03-26T05:59:23.995Z,0
2018-03-26T06:00:24.559Z,0
2018-03-26T06:01:25.127Z,0
2018-03-26T06:02:25.695Z,0
2018-03-26T06:03:26.263Z,0
2018-03-26T06:04:26.834Z,0
2018-03-26T06:05:27.400Z,5
2018-03-26T06:06:27.967Z,5
2018-03-26T06:07:28.536Z,5
2018-03-26T06:08:29.103Z,5
2018-03-26T06:09:29.671Z,5
2018-03-26T06:10:30.251Z,5
2018-03-26T06:11:30.830Z,5
2018-03-26T06:12:31.406Z,5
2018-03-26T06:13:31.973Z,5
2018-03-26T06:14:32.541Z,5
2018-03-26T06:15:33.159Z,5
2018-03-26T06:16:33.684Z,5
2018-03-26T06:17:34.249Z,5
2018-03-26T06:18:34.813Z,5
2018-03-26T06:19:35.392Z,5
2018-03-26T06:20:35.963Z,5
2018-03-26T06:21:36.529Z,5
2018-03-26T06:22:37.096Z,5
2018-03-26T06:23:37.674Z,5
2018-03-26T06:24:38.245Z,5
2018-03-26T06:25:38.810Z,5
2018-03-26T06:26:39.377Z,5
2018-03-26T06:27:39.945Z,5
2018-03-26T06:28:40.515Z,5
2018-03-26T06:29:41.082Z,5
2018-03-26T06:30:41.728Z,5
2018-03-26T06:31:42.217Z,5
2018-03-26T06:32:42.785Z,5
2018-03-26T06:33:43.353Z,5
2018-03-26T06:34:43.930Z,5
2018-03-26T06:35:44.499Z,5
2018-03-26T06:36:45.066Z,5
2018-03-26T06:37:45.635Z,5
2018-03-26T06:38:46.202Z,5
2018-03-26T06:39:46.770Z,5
2018-03-26T06:40:47.340Z,5
2018-03-26T06:41:47.907Z,5
2018-03-26T06:42:48.476Z,5
2018-03-26T06:43:49.043Z,5
2018-03-26T06:44:49.611Z,5
2018-03-26T06:45:50.181Z,10
2018-03-26T06:46:50.761Z,10
2018-03-26T06:47:51.328Z,15
2018-03-26T06:48:51.898Z,15
2018-03-26T06:49:52.523Z,15
2018-03-26T06:50:53.036Z,15
2018-03-26T06:51:53.605Z,15
2018-03-26T06:52:54.173Z,15
2018-03-26T06:53:54.744Z,15
2018-03-26T06:54:55.314Z,15
2018-03-26T06:55:55.883Z,15
2018-03-26T06:56:56.450Z,15
2018-03-26T06:57:57.019Z,15
2018-03-26T06:58:57.591Z,15
2018-03-26T06:59:58.160Z,15
2018-03-26T07:00:58.729Z,15
2018-03-26T07:01:59.298Z,15
2018-03-26T07:02:59.867Z,15
2018-03-26T07:04:00.436Z,15
2018-03-26T07:05:01.006Z,15
2018-03-26T07:06:01.575Z,15
2018-03-26T07:07:02.143Z,15
2018-03-26T07:08:02.712Z,15
2018-03-26T07:09:03.282Z,15
2018-03-26T07:10:03.851Z,15
2018-03-26T07:11:04.430Z,15
2018-03-26T07:12:05.001Z,15
2018-03-26T07:13:05.570Z,15
2018-03-26T07:14:06.137Z,15
2018-03-26T07:15:06.718Z,15
2018-03-26T07:16:07.286Z,15
2018-03-26T07:17:07.856Z,15
2018-03-26T07:18:08.423Z,15
2018-03-26T07:19:08.993Z,15
2018-03-26T07:20:09.564Z,20
2018-03-26T07:21:10.132Z,20
2018-03-26T07:22:10.700Z,20
2018-03-26T07:23:11.270Z,20
2018-03-26T07:24:11.836Z,20
2018-03-26T07:25:12.408Z,20
2018-03-26T07:26:12.975Z,15
2018-03-26T07:27:13.547Z,15
2018-03-26T07:28:14.110Z,20
2018-03-26T07:29:14.679Z,15
2018-03-26T07:30:15.251Z,20
2018-03-26T07:31:15.818Z,20
2018-03-26T07:32:16.387Z,20
2018-03-26T07:33:16.954Z,15
2018-03-26T07:34:17.524Z,20
2018-03-26T07:35:18.095Z,20
2018-03-26T07:36:18.675Z,20
2018-03-26T07:37:19.245Z,20
2018-03-26T07:38:19.813Z,15
2018-03-26T07:39:20.394Z,15
2018-03-26T07:40:20.960Z,15
2018-03-26T07:41:21.591Z,15
2018-03-26T07:42:22.098Z,15
2018-03-26T07:43:22.666Z,20
2018-03-26T07:44:23.237Z,20
2018-03-26T07:45:23.806Z,20
2018-03-26T07:46:24.377Z,20
2018-03-26T07:47:24.956Z,20
2018-03-26T07:48:25.525Z,20
2018-03-26T07:49:26.093Z,20
2018-03-26T07:50:26.660Z,20
2018-03-26T07:51:27.230Z,20
2018-03-26T07:52:27.800Z,20
2018-03-26T07:53:28.369Z,20
2018-03-26T07:54:28.937Z,20
2018-03-26T07:55:29.506Z,20
2018-03-26T07:56:30.074Z,20
2018-03-26T07:57:30.646Z,20
2018-03-26T07:58:31.213Z,20
2018-03-26T07:59:31.782Z,20
2018-03-26T08:00:32.377Z,20
2018-03-26T08:01:32.921Z,20
2018-03-26T08:02:33.499Z,25
2018-03-26T08:03:34.068Z,20
2018-03-26T08:04:34.636Z,20
2018-03-26T08:05:35.210Z,25
2018-03-26T08:06:35.775Z,25
2018-03-26T08:07:36.343Z,25
2018-03-26T08:08:36.912Z,25
2018-03-26T08:09:37.482Z,20
2018-03-26T08:10:38.052Z,20
2018-03-26T08:11:38.620Z,25
2018-03-26T08:12:39.188Z,25
2018-03-26T08:13:39.757Z,25
2018-03-26T08:14:40.325Z,25
2018-03-26T08:15:40.905Z,25
2018-03-26T08:16:41.472Z,25
2018-03-26T08:17:42.043Z,25
2018-03-26T08:18:42.613Z,25
2018-03-26T08:19:43.182Z,25
2018-03-26T08:20:43.753Z,20
2018-03-26T08:21:44.331Z,20
2018-03-26T08:22:44.900Z,25
2018-03-26T08:23:45.473Z,30
2018-03-26T08:24:46.041Z,30
2018-03-26T08:25:46.609Z,30
2018-03-26T08:26:47.177Z,30
2018-03-26T08:27:47.756Z,25
2018-03-26T08:28:48.325Z,25
2018-03-26T08:29:48.896Z,25
2018-03-26T08:30:49.475Z,25
2018-03-26T08:31:50.049Z,25
2018-03-26T08:32:50.612Z,30
2018-03-26T08:33:51.181Z,25
2018-03-26T08:34:51.750Z,25
2018-03-26T08:35:52.321Z,30
2018-03-26T08:36:52.898Z,25
2018-03-26T08:37:53.467Z,20
2018-03-26T08:38:54.039Z,25
2018-03-26T08:39:54.607Z,30
2018-03-26T08:40:55.176Z,30
2018-03-26T08:41:55.747Z,25
2018-03-26T08:42:56.316Z,25
2018-03-26T08:43:56.890Z,25
2018-03-26T08:44:57.455Z,25
2018-03-26T08:45:58.036Z,25
2018-03-26T08:46:58.604Z,30
2018-03-26T08:47:59.172Z,30
2018-03-26T08:48:59.744Z,30
2018-03-26T08:50:00.381Z,25
2018-03-26T08:51:00.881Z,25
2018-03-26T08:52:01.450Z,25
2018-03-26T08:53:02.019Z,20
2018-03-26T08:54:02.586Z,20
2018-03-26T08:55:03.158Z,25
2018-03-26T08:56:03.727Z,30
2018-03-26T08:57:04.297Z,30
2018-03-26T08:58:04.865Z,25
2018-03-26T08:59:05.446Z,25
2018-03-26T09:00:06.015Z,25
2018-03-26T09:01:06.585Z,25
2018-03-26T09:02:07.152Z,25
2018-03-26T09:03:07.723Z,25
2018-03-26T09:04:08.291Z,25
2018-03-26T09:05:08.860Z,25
2018-03-26T09:06:09.428Z,30
2018-03-26T09:07:09.997Z,25
2018-03-26T09:08:10.567Z,25
2018-03-26T09:09:11.137Z,25
2018-03-26T09:10:11.708Z,30
2018-03-26T09:11:12.288Z,25
2018-03-26T09:12:12.856Z,30
2018-03-26T09:13:13.426Z,30
2018-03-26T09:14:13.998Z,30
2018-03-26T09:15:14.577Z,30
2018-03-26T09:16:15.145Z,30
2018-03-26T09:17:15.713Z,30
2018-03-26T09:18:16.284Z,30
2018-03-26T09:19:16.861Z,30
2018-03-26T09:20:17.434Z,25
2018-03-26T09:21:18.008Z,30
2018-03-26T09:22:18.578Z,30
2018-03-26T09:23:19.145Z,30
2018-03-26T09:24:19.714Z,30
2018-03-26T09:25:20.282Z,30
2018-03-26T09:26:20.853Z,30
2018-03-26T09:27:21.425Z,30
2018-03-26T09:28:21.991Z,30
2018-03-26T09:29:22.571Z,30
2018-03-26T09:30:23.142Z,30
2018-03-26T09:31:23.711Z,30
2018-03-26T09:32:24.280Z,30
2018-03-26T09:33:24.852Z,30
2018-03-26T09:34:25.419Z,30
2018-03-26T09:35:25.991Z,30
2018-03-26T09:36:26.559Z,30
2018-03-26T09:37:27.129Z,30
2018-03-26T09:38:27.698Z,30
2018-03-26T09:39:28.269Z,30
2018-03-26T09:40:28.898Z,30
2018-03-26T09:41:29.418Z,30
2018-03-26T09:42:30.001Z,30
2018-03-26T09:43:30.568Z,30
2018-03-26T09:44:31.140Z,30
2018-03-26T09:45:31.710Z,30
2018-03-26T09:46:32.281Z,30
2018-03-26T09:47:32.863Z,30
2018-03-26T09:48:33.432Z,30
2018-03-26T09:49:34.007Z,30
2018-03-26T09:50:34.573Z,30
2018-03-26T09:51:35.143Z,30
2018-03-26T09:52:35.715Z,30
2018-03-26T09:53:36.285Z,30
2018-03-26T09:54:36.853Z,30
2018-03-26T09:55:37.423Z,30
2018-03-26T09:56:38.004Z,30
2018-03-26T09:57:38.583Z,30
2018-03-26T09:58:39.153Z,30
2018-03-26T09:59:39.723Z,30
2018-03-26T10:00:40.295Z,30
2018-03-26T10:01:40.862Z,30
2018-03-26T10:02:41.433Z,30
2018-03-26T10:03:42.005Z,30
2018-03-26T10:04:42.575Z,30
2018-03-26T10:05:43.144Z,30
2018-03-26T10:06:43.714Z,30
2018-03-26T10:07:44.284Z,30
2018-03-26T10:08:44.856Z,30
2018-03-26T10:09:45.426Z,30
2018-03-26T10:10:45.996Z,30
2018-03-26T10:11:46.566Z,30
2018-03-26T10:12:47.140Z,30
2018-03-26T10:13:47.706Z,30
2018-03-26T10:14:48.276Z,30
2018-03-26T10:15:48.847Z,30
2018-03-26T10:16:49.416Z,30
2018-03-26T10:17:49.986Z,30
2018-03-26T10:18:50.557Z,30
2018-03-26T10:19:51.128Z,30
2018-03-26T10:20:51.700Z,30
2018-03-26T10:21:52.270Z,30
2018-03-26T10:22:52.839Z,30
2018-03-26T10:23:53.411Z,30
2018-03-26T10:24:53.982Z,30
2018-03-26T10:25:54.553Z,30
2018-03-26T10:26:55.123Z,30
2018-03-26T10:27:55.692Z,30
2018-03-26T10:28:56.263Z,30
2018-03-26T10:29:56.835Z,30
2018-03-26T10:30:57.414Z,30
2018-03-26T10:31:57.996Z,30
2018-03-26T10:32:58.565Z,30
2018-03-26T10:33:59.137Z,30
2018-03-26T10:34:59.708Z,30
2018-03-26T10:36:00.282Z,30
2018-03-26T10:37:00.850Z,25
2018-03-26T10:38:01.421Z,25
2018-03-26T10:39:01.991Z,30
2018-03-26T10:40:02.572Z,30
2018-03-26T10:41:03.145Z,30
2018-03-26T10:42:03.713Z,30
2018-03-26T10:43:04.285Z,30
2018-03-26T10:44:04.855Z,35
2018-03-26T10:45:05.425Z,30
2018-03-26T10:46:05.995Z,25
2018-03-26T10:47:06.565Z,25
2018-03-26T10:48:07.138Z,30
2018-03-26T10:49:07.708Z,30
2018-03-26T10:50:08.278Z,30
2018-03-26T10:51:08.851Z,30
2018-03-26T10:52:09.418Z,30
2018-03-26T10:53:10.001Z,30
2018-03-26T10:54:10.572Z,30
2018-03-26T10:55:11.142Z,30
2018-03-26T10:56:11.713Z,30
2018-03-26T10:57:12.285Z,30
2018-03-26T10:58:12.859Z,30
2018-03-26T10:59:13.426Z,30
2018-03-26T11:00:14.004Z,30
2018-03-26T11:01:14.573Z,30
2018-03-26T11:02:15.145Z,30
2018-03-26T11:03:15.716Z,30
2018-03-26T11:04:16.314Z,30
2018-03-26T11:05:16.894Z,30
2018-03-26T11:06:17.465Z,30
2018-03-26T11:07:18.037Z,30
2018-03-26T11:08:18.608Z,35
2018-03-26T11:09:19.178Z,35
2018-03-26T11:10:19.750Z,30
2018-03-26T11:11:20.323Z,30
2018-03-26T11:12:20.892Z,30
2018-03-26T11:13:21.462Z,30
2018-03-26T11:14:22.033Z,35
2018-03-26T11:15:22.604Z,35
2018-03-26T11:16:23.177Z,30
2018-03-26T11:17:23.747Z,30
2018-03-26T11:18:24.334Z,30
2018-03-26T11:19:24.901Z,30
2018-03-26T11:20:25.474Z,30
2018-03-26T11:21:26.041Z,30
2018-03-26T11:22:26.624Z,30
2018-03-26T11:23:27.195Z,30
2018-03-26T11:24:27.764Z,25
2018-03-26T11:25:28.337Z,30
2018-03-26T11:26:28.908Z,30
2018-03-26T11:27:29.480Z,30
2018-03-26T11:28:30.050Z,30
2018-03-26T11:29:30.620Z,30
2018-03-26T11:30:31.192Z,30
2018-03-26T11:31:31.764Z,30
2018-03-26T11:32:32.335Z,30
2018-03-26T11:33:32.905Z,30
2018-03-26T11:34:33.477Z,30
2018-03-26T11:35:34.049Z,30
2018-03-26T11:36:34.620Z,30
2018-03-26T11:37:35.191Z,30
2018-03-26T11:38:35.762Z,30
2018-03-26T11:39:36.334Z,30
2018-03-26T11:40:36.905Z,30
2018-03-26T11:41:37.475Z,30
2018-03-26T11:42:38.048Z,30
2018-03-26T11:43:38.620Z,30
2018-03-26T11:44:39.192Z,30
2018-03-26T11:45:39.762Z,30
2018-03-26T11:46:40.333Z,30
2018-03-26T11:47:40.903Z,30
2018-03-26T11:48:41.521Z,30
2018-03-26T11:49:42.096Z,30
2018-03-26T11:50:42.665Z,30
2018-03-26T11:51:43.235Z,30
2018-03-26T11:52:43.806Z,30
2018-03-26T11:53:44.376Z,30
2018-03-26T11:54:44.948Z,30
2018-03-26T11:55:45.522Z,25
2018-03-26T11:56:46.091Z,25
2018-03-26T11:57:46.664Z,30
2018-03-26T11:58:47.235Z,30
2018-03-26T11:59:47.847Z,30
2018-03-26T12:00:48.410Z,30
2018-03-26T12:01:48.980Z,30
2018-03-26T12:02:49.562Z,30
2018-03-26T12:03:50.133Z,30
2018-03-26T12:04:50.704Z,30
2018-03-26T12:05:51.277Z,30
2018-03-26T12:06:51.860Z,25
2018-03-26T12:07:52.431Z,30
2018-03-26T12:08:53.051Z,30
2018-03-26T12:09:53.575Z,30
2018-03-26T12:10:54.147Z,30
2018-03-26T12:11:54.718Z,30
2018-03-26T12:12:55.291Z,30
2018-03-26T12:13:55.867Z,35
2018-03-26T12:14:56.435Z,30
2018-03-26T12:15:57.008Z,35
2018-03-26T12:16:57.582Z,30
2018-03-26T12:17:58.156Z,35
2018-03-26T12:18:58.723Z,35
2018-03-26T12:19:59.294Z,35
2018-03-26T12:20:59.865Z,35
2018-03-26T12:22:00.444Z,35
2018-03-26T12:23:01.010Z,35
2018-03-26T12:24:01.581Z,35
2018-03-26T12:25:02.153Z,35
2018-03-26T12:26:02.724Z,35
2018-03-26T12:27:03.297Z,30
2018-03-26T12:28:03.868Z,30
2018-03-26T12:29:04.439Z,30
2018-03-26T12:30:05.018Z,30
2018-03-26T12:31:05.591Z,30
2018-03-26T12:32:06.165Z,30
2018-03-26T12:33:06.885Z,30
2018-03-26T12:34:07.461Z,30
2018-03-26T12:35:08.029Z,30
2018-03-26T12:36:08.655Z,30
2018-03-26T12:37:09.228Z,30
2018-03-26T12:38:09.801Z,30
2018-03-26T12:39:10.382Z,25
2018-03-26T12:40:10.955Z,30
2018-03-26T12:41:11.529Z,30
2018-03-26T12:42:12.110Z,30
2018-03-26T12:43:12.681Z,30
2018-03-26T12:44:13.253Z,30
2018-03-26T12:45:13.824Z,30
2018-03-26T12:46:14.396Z,30
2018-03-26T12:47:14.968Z,30
2018-03-26T12:48:15.542Z,30
2018-03-26T12:49:16.113Z,30
2018-03-26T12:50:16.688Z,30
2018-03-26T12:51:17.256Z,30
2018-03-26T12:52:17.829Z,30
2018-03-26T12:53:18.401Z,30
2018-03-26T12:54:18.972Z,30
2018-03-26T12:55:19.545Z,30
2018-03-26T12:56:20.125Z,30
2018-03-26T12:57:20.689Z,30
2018-03-26T12:58:21.269Z,35
2018-03-26T12:59:21.834Z,35
2018-03-26T13:00:22.405Z,35
2018-03-26T13:01:22.974Z,35
2018-03-26T13:02:23.545Z,35
2018-03-26T13:03:24.119Z,35
2018-03-26T13:04:24.702Z,35
2018-03-26T13:05:25.274Z,30
2018-03-26T13:06:25.848Z,30
2018-03-26T13:07:26.418Z,30
2018-03-26T13:08:26.990Z,30
2018-03-26T13:09:27.561Z,25
2018-03-26T13:10:28.132Z,25
2018-03-26T13:11:28.706Z,25
2018-03-26T13:12:29.278Z,25
2018-03-26T13:13:29.850Z,25
2018-03-26T13:14:30.423Z,30
2018-03-26T13:15:30.994Z,30
2018-03-26T13:16:31.567Z,25
2018-03-26T13:17:32.139Z,30
2018-03-26T13:18:32.710Z,30
2018-03-26T13:19:33.294Z,25
2018-03-26T13:20:33.865Z,30
2018-03-26T13:21:34.478Z,35
2018-03-26T13:22:35.018Z,35
2018-03-26T13:23:35.588Z,35
2018-03-26T13:24:36.158Z,35
2018-03-26T13:25:36.729Z,35
2018-03-26T13:26:37.301Z,35
2018-03-26T13:27:37.875Z,35
2018-03-26T13:28:38.446Z,35
2018-03-26T13:29:39.018Z,20
2018-03-26T13:30:39.589Z,30
2018-03-26T13:31:40.160Z,25
2018-03-26T13:32:40.732Z,20
2018-03-26T13:33:41.304Z,20
2018-03-26T13:34:41.878Z,35
2018-03-26T13:35:42.449Z,35
2018-03-26T13:36:43.021Z,35
2018-03-26T13:37:43.594Z,30
2018-03-26T13:38:44.165Z,35
2018-03-26T13:39:44.737Z,35
2018-03-26T13:40:45.310Z,35
2018-03-26T13:41:45.882Z,35
2018-03-26T13:42:46.455Z,35
2018-03-26T13:43:47.027Z,30
2018-03-26T13:44:47.598Z,30
2018-03-26T13:45:48.168Z,30
2018-03-26T13:46:48.740Z,30
2018-03-26T13:47:49.313Z,35
2018-03-26T13:48:49.886Z,35
2018-03-26T13:49:50.459Z,35
2018-03-26T13:50:51.031Z,35
2018-03-26T13:51:51.604Z,35
2018-03-26T13:52:52.185Z,35
2018-03-26T13:53:52.783Z,35
2018-03-26T13:54:53.357Z,35
2018-03-26T13:55:53.939Z,35
2018-03-26T13:56:54.518Z,35
2018-03-26T13:57:55.086Z,35
2018-03-26T13:58:55.659Z,35
2018-03-26T13:59:56.230Z,35
2018-03-26T14:00:56.803Z,30
2018-03-26T14:01:57.376Z,30
2018-03-26T14:02:57.949Z,30
2018-03-26T14:03:58.520Z,35
2018-03-26T14:04:59.096Z,35
2018-03-26T14:05:59.661Z,35
2018-03-26T14:07:00.233Z,35
2018-03-26T14:08:00.810Z,35
2018-03-26T14:09:01.390Z,35
2018-03-26T14:10:01.962Z,35
2018-03-26T14:11:02.537Z,35
2018-03-26T14:12:03.119Z,35
2018-03-26T14:13:03.690Z,35
2018-03-26T14:14:04.264Z,35
2018-03-26T14:15:04.841Z,35
2018-03-26T14:16:05.419Z,35
2018-03-26T14:17:05.991Z,35
2018-03-26T14:18:06.563Z,35
2018-03-26T14:19:07.137Z,35
2018-03-26T14:20:07.711Z,35
2018-03-26T14:21:08.283Z,35
2018-03-26T14:22:08.856Z,35
2018-03-26T14:23:09.431Z,35
2018-03-26T14:24:10.007Z,35
2018-03-26T14:25:10.587Z,35
2018-03-26T14:26:11.162Z,35
2018-03-26T14:27:11.747Z,35
2018-03-26T14:28:12.320Z,35
2018-03-26T14:29:12.896Z,35
2018-03-26T14:30:13.467Z,35
2018-03-26T14:31:14.038Z,35
2018-03-26T14:32:14.631Z,35
2018-03-26T14:33:15.209Z,35
2018-03-26T14:34:15.779Z,35
2018-03-26T14:35:16.353Z,35
2018-03-26T14:36:16.928Z,35
2018-03-26T14:37:17.500Z,35